createdAt,value
2023-09-30T00:01:45.311Z,98.90
2023-09-30T00:04:12.359Z,99.30
2023-09-30T00:06:39.127Z,98.90
2023-09-30T00:09:06.454Z,99.40
2023-09-30T00:11:33.198Z,99.40
2023-09-30T00:14:00.047Z,99.50
2023-09-30T00:16:26.858Z,99.90
2023-09-30T00:18:55.513Z,99.90
2023-09-30T00:21:22.498Z,99.90
2023-09-30T00:23:49.206Z,99.90
2023-09-30T00:26:15.842Z,99.90
2023-09-30T00:28:42.556Z,99.90
2023-09-30T00:31:12.104Z,99.90
2023-09-30T00:33:38.822Z,99.90
2023-09-30T00:36:09.526Z,99.90
2023-09-30T00:38:36.787Z,99.90
2023-09-30T00:41:03.679Z,99.90
2023-09-30T00:43:30.412Z,99.90
2023-09-30T00:46:02.637Z,99.90
2023-09-30T00:48:29.634Z,99.90
2023-09-30T00:50:58.100Z,99.90
2023-09-30T00:53:25.012Z,99.90
2023-09-30T00:55:52.286Z,99.90
2023-09-30T00:58:19.019Z,99.90
2023-09-30T01:00:45.712Z,99.90
2023-09-30T01:03:13.559Z,99.90
2023-09-30T01:05:40.428Z,99.90
2023-09-30T01:08:07.028Z,99.90
2023-09-30T01:10:33.659Z,99.90
2023-09-30T01:13:00.283Z,99.90
2023-09-30T01:15:26.962Z,99.90
2023-09-30T01:17:53.651Z,99.90
2023-09-30T01:20:24.825Z,99.90
2023-09-30T01:22:51.649Z,99.90
2023-09-30T01:25:18.414Z,99.90
2023-09-30T01:27:45.040Z,99.90
2023-09-30T01:30:12.394Z,99.90
2023-09-30T01:32:39.227Z,99.90
2023-09-30T01:35:06.244Z,99.90
2023-09-30T01:37:33.037Z,99.90
2023-09-30T01:39:59.723Z,99.90
2023-09-30T01:42:27.281Z,99.90
2023-09-30T01:44:54.202Z,99.90
2023-09-30T01:47:20.934Z,99.90
2023-09-30T01:49:47.650Z,99.90
2023-09-30T01:52:14.404Z,99.90
2023-09-30T01:54:41.202Z,99.90
2023-09-30T01:57:07.887Z,99.90
2023-09-30T01:59:34.554Z,99.90
2023-09-30T02:02:01.173Z,99.90
2023-09-30T02:04:27.832Z,99.90
2023-09-30T02:06:54.517Z,99.90
2023-09-30T02:09:21.486Z,99.90
2023-09-30T02:11:48.200Z,99.90
2023-09-30T02:14:14.813Z,99.90
2023-09-30T02:16:41.613Z,99.90
2023-09-30T02:19:10.226Z,99.90
2023-09-30T02:21:36.994Z,99.90
2023-09-30T02:24:03.862Z,99.90
2023-09-30T02:26:30.642Z,99.90
2023-09-30T02:28:57.882Z,99.90
2023-09-30T02:31:25.135Z,99.90
2023-09-30T02:33:52.164Z,99.90
2023-09-30T02:36:18.930Z,99.90
2023-09-30T02:38:47.405Z,99.90
2023-09-30T02:41:14.049Z,99.90
2023-09-30T02:43:41.834Z,99.90
2023-09-30T02:46:09.660Z,99.90
2023-09-30T02:48:36.461Z,99.90
2023-09-30T02:51:03.120Z,99.90
2023-09-30T02:53:29.841Z,99.90
2023-09-30T02:55:57.838Z,99.90
2023-09-30T02:58:25.333Z,99.90
2023-09-30T03:00:52.081Z,99.90
2023-09-30T03:03:18.897Z,99.90
2023-09-30T03:05:46.629Z,99.90
2023-09-30T03:08:13.468Z,99.90
2023-09-30T03:10:42.071Z,99.90
2023-09-30T03:13:10.318Z,99.90
2023-09-30T03:15:37.072Z,99.90
2023-09-30T03:18:04.719Z,99.90
2023-09-30T03:20:32.003Z,99.90
2023-09-30T03:22:59.018Z,99.90
2023-09-30T03:25:25.822Z,99.90
2023-09-30T03:27:52.558Z,99.90
2023-09-30T03:30:21.277Z,99.90
2023-09-30T03:32:48.637Z,99.90
2023-09-30T03:35:17.937Z,99.90
2023-09-30T03:37:45.892Z,99.90
2023-09-30T03:40:14.758Z,99.90
2023-09-30T03:42:43.742Z,99.90
2023-09-30T03:45:11.371Z,99.90
2023-09-30T03:47:38.454Z,99.90
2023-09-30T03:50:05.862Z,99.90
2023-09-30T03:52:34.809Z,99.90
2023-09-30T03:55:05.538Z,99.90
2023-09-30T03:57:33.004Z,99.90
2023-09-30T03:59:59.729Z,99.90
2023-09-30T04:02:26.465Z,99.90
2023-09-30T04:04:54.740Z,99.90
2023-09-30T04:07:22.400Z,99.90
2023-09-30T04:09:49.118Z,99.90
2023-09-30T04:12:16.272Z,99.90
2023-09-30T04:14:42.938Z,99.90
2023-09-30T04:17:10.280Z,99.90
2023-09-30T04:19:36.998Z,99.90
2023-09-30T04:22:03.644Z,99.90
2023-09-30T04:24:30.635Z,99.90
2023-09-30T04:27:03.314Z,99.90
2023-09-30T04:29:30.598Z,99.90
2023-09-30T04:31:57.736Z,99.90
2023-09-30T04:34:24.521Z,99.90
2023-09-30T04:36:51.155Z,99.90
2023-09-30T04:39:17.825Z,99.90
2023-09-30T04:41:44.457Z,99.90
2023-09-30T04:44:11.153Z,99.90
2023-09-30T04:46:41.656Z,99.90
2023-09-30T04:49:08.847Z,99.90
2023-09-30T04:51:35.706Z,99.90
2023-09-30T04:54:03.408Z,99.90
2023-09-30T04:56:30.357Z,99.90
2023-09-30T04:58:57.006Z,99.90
2023-09-30T05:01:23.644Z,99.90
2023-09-30T05:03:50.664Z,99.90
2023-09-30T05:06:18.108Z,99.90
2023-09-30T05:08:44.778Z,99.90
2023-09-30T05:11:11.522Z,99.90
2023-09-30T05:13:38.156Z,99.90
2023-09-30T05:16:05.337Z,99.90
2023-09-30T05:18:32.439Z,99.90
2023-09-30T05:20:59.202Z,99.90
2023-09-30T05:23:26.640Z,99.90
2023-09-30T05:25:54.095Z,99.90
2023-09-30T05:28:23.839Z,99.90
2023-09-30T05:30:51.864Z,99.90
2023-09-30T05:33:18.706Z,99.90
2023-09-30T05:35:45.337Z,99.90
2023-09-30T05:38:11.949Z,99.90
2023-09-30T05:40:38.588Z,99.90
2023-09-30T05:43:06.610Z,99.90
2023-09-30T05:45:36.854Z,99.90
2023-09-30T05:48:06.625Z,99.90
2023-09-30T05:50:35.054Z,99.90
2023-09-30T05:53:01.678Z,99.90
2023-09-30T05:55:28.984Z,99.90
2023-09-30T05:57:56.252Z,99.90
2023-09-30T06:00:24.465Z,99.90
2023-09-30T06:02:52.642Z,99.90
2023-09-30T06:05:27.590Z,99.90
2023-09-30T06:07:55.304Z,99.90
2023-09-30T06:10:22.420Z,99.90
2023-09-30T06:12:49.907Z,99.90
2023-09-30T06:15:17.149Z,99.90
2023-09-30T06:17:44.190Z,99.90
2023-09-30T06:20:17.577Z,99.90
2023-09-30T06:22:46.999Z,99.90
2023-09-30T06:25:14.785Z,99.90
2023-09-30T06:27:41.501Z,99.90
2023-09-30T06:30:10.058Z,99.90
2023-09-30T06:32:36.822Z,99.90
2023-09-30T06:35:04.609Z,99.90
2023-09-30T06:37:31.228Z,99.90
2023-09-30T06:39:57.963Z,99.90
2023-09-30T06:42:25.599Z,99.90
2023-09-30T06:44:53.964Z,99.90
2023-09-30T06:47:21.809Z,99.90
2023-09-30T06:49:48.864Z,99.90
2023-09-30T06:52:15.530Z,99.90
2023-09-30T06:54:42.204Z,99.90
2023-09-30T06:57:09.376Z,99.90
2023-09-30T06:59:36.025Z,99.90
2023-09-30T07:02:02.809Z,99.90
2023-09-30T07:04:30.072Z,99.90
2023-09-30T07:06:56.837Z,99.90
2023-09-30T07:09:23.534Z,99.90
2023-09-30T07:11:50.491Z,99.90
2023-09-30T07:14:17.222Z,99.90
2023-09-30T07:16:44.261Z,99.90
2023-09-30T07:19:10.993Z,99.90
2023-09-30T07:21:38.761Z,99.90
2023-09-30T07:24:05.891Z,99.90
2023-09-30T07:26:32.676Z,99.90
2023-09-30T07:28:59.588Z,99.90
2023-09-30T07:31:26.976Z,99.90
2023-09-30T07:33:54.188Z,99.90
2023-09-30T07:36:21.140Z,99.90
2023-09-30T07:38:48.281Z,99.90
2023-09-30T07:41:15.010Z,99.90
2023-09-30T07:43:41.628Z,99.90
2023-09-30T07:46:08.650Z,99.90
2023-09-30T07:48:36.389Z,99.90
2023-09-30T07:51:03.304Z,99.90
2023-09-30T07:53:30.158Z,99.90
2023-09-30T07:55:57.653Z,99.90
2023-09-30T07:58:24.483Z,99.90
2023-09-30T08:00:51.966Z,99.90
2023-09-30T08:03:18.935Z,99.90
2023-09-30T08:05:47.556Z,99.90
2023-09-30T08:08:15.508Z,99.90
2023-09-30T08:10:43.421Z,99.90
2023-09-30T08:13:10.695Z,99.90
2023-09-30T08:15:38.149Z,99.90
2023-09-30T08:18:07.241Z,99.90
2023-09-30T08:20:34.055Z,99.90
2023-09-30T08:23:00.706Z,99.90
2023-09-30T08:25:27.870Z,99.90
2023-09-30T08:27:55.777Z,99.90
2023-09-30T08:30:22.676Z,99.90
2023-09-30T08:32:49.346Z,99.20
2023-09-30T08:35:16.519Z,98.20
2023-09-30T08:37:43.243Z,97.60
2023-09-30T08:40:11.161Z,97.30
2023-09-30T08:42:39.388Z,97.50
2023-09-30T08:45:07.951Z,97.60
2023-09-30T08:47:36.503Z,97.70
2023-09-30T08:50:07.749Z,97.30
2023-09-30T08:52:37.994Z,97.20
2023-09-30T08:55:08.140Z,97.60
2023-09-30T08:57:36.938Z,97.80
2023-09-30T09:00:03.807Z,97.70
2023-09-30T09:02:30.498Z,97.20
2023-09-30T09:04:58.741Z,97.00
2023-09-30T09:07:25.369Z,96.70
2023-09-30T09:10:05.740Z,96.20
2023-09-30T09:12:33.294Z,96.10
2023-09-30T09:15:00.138Z,95.20
2023-09-30T09:17:41.750Z,94.90
2023-09-30T09:20:11.356Z,93.90
2023-09-30T09:22:42.079Z,92.60
2023-09-30T09:25:08.935Z,93.30
2023-09-30T09:27:38.502Z,93.00
2023-09-30T09:30:18.224Z,93.70
2023-09-30T09:33:01.498Z,94.20
2023-09-30T09:35:33.549Z,94.10
2023-09-30T09:38:01.510Z,95.00
2023-09-30T09:40:29.421Z,95.30
2023-09-30T09:42:57.037Z,95.50
2023-09-30T09:45:26.697Z,96.00
2023-09-30T09:47:54.185Z,96.10
2023-09-30T09:50:21.860Z,96.20
2023-09-30T09:52:50.051Z,94.50
2023-09-30T09:55:18.145Z,92.90
2023-09-30T10:00:35.071Z,91.00
2023-09-30T10:03:04.045Z,86.80
2023-09-30T10:05:30.842Z,84.70
2023-09-30T10:08:01.236Z,79.80
2023-09-30T10:10:29.261Z,80.00
2023-09-30T10:12:55.944Z,79.90
2023-09-30T10:15:25.788Z,77.00
2023-09-30T10:18:04.327Z,77.50
2023-09-30T10:20:32.090Z,78.00
2023-09-30T10:23:17.490Z,80.50
2023-09-30T10:25:50.566Z,79.50
2023-09-30T10:28:36.126Z,81.40
2023-09-30T10:31:08.961Z,82.20
2023-09-30T10:33:35.719Z,82.80
2023-09-30T10:36:04.250Z,82.00
2023-09-30T10:38:32.228Z,82.70
2023-09-30T10:40:59.132Z,83.00
2023-09-30T10:43:39.171Z,82.60
2023-09-30T10:46:27.264Z,81.80
2023-09-30T10:48:54.517Z,83.00
2023-09-30T10:51:24.348Z,80.40
2023-09-30T10:53:58.258Z,79.90
2023-09-30T10:56:25.500Z,80.60
2023-09-30T10:58:53.456Z,81.40
2023-09-30T11:01:21.504Z,78.80
2023-09-30T11:03:48.962Z,80.20
2023-09-30T11:06:19.189Z,81.80
2023-09-30T11:08:48.127Z,79.00
2023-09-30T11:11:15.780Z,78.40
2023-09-30T11:13:42.786Z,77.70
2023-09-30T11:16:09.821Z,73.50
2023-09-30T11:18:39.354Z,72.20
2023-09-30T11:21:07.436Z,69.90
2023-09-30T11:23:34.583Z,69.40
2023-09-30T11:26:01.248Z,66.10
2023-09-30T11:28:36.844Z,63.40
2023-09-30T11:31:03.945Z,65.60
2023-09-30T11:33:31.447Z,66.20
2023-09-30T11:36:00.094Z,66.30
2023-09-30T11:38:26.856Z,63.60
2023-09-30T11:41:01.154Z,63.60
2023-09-30T11:43:28.518Z,64.80
2023-09-30T11:46:05.014Z,64.20
2023-09-30T11:48:31.758Z,64.50
2023-09-30T11:51:02.628Z,67.50
2023-09-30T11:53:32.795Z,68.10
2023-09-30T11:56:00.457Z,67.30
2023-09-30T11:58:27.861Z,69.00
2023-09-30T12:00:58.864Z,69.50
2023-09-30T12:03:26.611Z,67.80
2023-09-30T12:05:56.461Z,66.50
2023-09-30T12:08:24.067Z,64.90
2023-09-30T12:10:50.823Z,62.90
2023-09-30T12:13:17.939Z,61.60
2023-09-30T12:15:45.440Z,60.80
2023-09-30T12:18:14.514Z,59.30
2023-09-30T12:20:42.448Z,58.10
2023-09-30T12:23:09.162Z,58.30
2023-09-30T12:25:36.887Z,55.60
2023-09-30T12:28:03.688Z,56.30
2023-09-30T12:30:33.241Z,56.70
2023-09-30T12:33:00.025Z,56.60
2023-09-30T12:35:26.718Z,56.20
2023-09-30T12:37:53.365Z,56.50
2023-09-30T12:40:20.098Z,56.60
2023-09-30T12:42:47.699Z,55.60
2023-09-30T12:45:14.664Z,55.60
2023-09-30T12:47:41.314Z,55.60
2023-09-30T12:50:12.730Z,55.30
2023-09-30T12:52:39.745Z,54.90
2023-09-30T12:55:06.838Z,53.80
2023-09-30T12:57:33.509Z,53.60
2023-09-30T13:00:00.199Z,54.70
2023-09-30T13:02:27.018Z,55.00
2023-09-30T13:04:55.706Z,55.50
2023-09-30T13:07:22.512Z,57.00
2023-09-30T13:09:49.219Z,60.00
2023-09-30T13:12:15.952Z,61.20
2023-09-30T13:14:43.362Z,61.50
2023-09-30T13:17:10.772Z,62.70
2023-09-30T13:19:38.274Z,63.80
2023-09-30T13:22:18.224Z,62.30
2023-09-30T13:24:45.906Z,62.00
2023-09-30T13:27:12.577Z,59.80
2023-09-30T13:29:39.280Z,61.30
2023-09-30T13:32:06.530Z,61.10
2023-09-30T13:34:33.275Z,62.20
2023-09-30T13:36:59.928Z,63.70
2023-09-30T13:39:26.772Z,65.30
2023-09-30T13:41:53.504Z,66.00
2023-09-30T13:44:20.251Z,65.30
2023-09-30T13:46:46.991Z,66.70
2023-09-30T13:49:13.782Z,67.60
2023-09-30T13:51:40.634Z,67.50
2023-09-30T13:54:10.113Z,69.00
2023-09-30T13:56:36.725Z,68.00
2023-09-30T13:59:03.338Z,68.70
2023-09-30T14:01:30.136Z,69.20
2023-09-30T14:03:58.447Z,68.30
2023-09-30T14:06:25.242Z,70.20
2023-09-30T14:08:53.919Z,69.60
2023-09-30T14:11:20.576Z,71.00
2023-09-30T14:13:47.252Z,70.00
2023-09-30T14:16:13.930Z,70.40
2023-09-30T14:18:40.723Z,69.50
2023-09-30T14:21:07.733Z,70.10
2023-09-30T14:23:34.324Z,71.20
2023-09-30T14:26:01.796Z,70.40
2023-09-30T14:28:28.468Z,70.30
2023-09-30T14:30:55.222Z,69.20
2023-09-30T14:33:21.981Z,70.30
2023-09-30T14:35:50.873Z,71.00
2023-09-30T14:38:17.670Z,72.10
2023-09-30T14:40:44.275Z,71.90
2023-09-30T14:43:11.073Z,72.70
2023-09-30T14:45:38.541Z,73.60
2023-09-30T14:48:06.117Z,73.10
2023-09-30T14:50:32.756Z,73.10
2023-09-30T14:52:59.534Z,73.80
2023-09-30T14:55:26.174Z,73.50
2023-09-30T14:57:52.839Z,73.10
2023-09-30T15:00:22.677Z,74.80
2023-09-30T15:02:49.422Z,73.40
2023-09-30T15:05:16.931Z,74.70
2023-09-30T15:07:43.949Z,74.40
2023-09-30T15:10:10.757Z,74.20
2023-09-30T15:12:37.674Z,74.10
2023-09-30T15:15:05.073Z,75.20
2023-09-30T15:17:31.795Z,74.20
2023-09-30T15:19:59.177Z,74.80
2023-09-30T15:22:25.837Z,77.50
2023-09-30T15:24:52.492Z,78.00
2023-09-30T15:27:19.581Z,76.10
2023-09-30T15:29:46.358Z,78.20
2023-09-30T15:32:13.258Z,77.60
2023-09-30T15:34:41.296Z,78.30
2023-09-30T15:37:08.529Z,76.50
2023-09-30T15:39:39.919Z,79.30
2023-09-30T15:42:07.101Z,79.60
2023-09-30T15:44:33.738Z,78.20
2023-09-30T15:47:00.380Z,78.60
2023-09-30T15:49:27.108Z,80.10
2023-09-30T15:51:54.478Z,81.10
2023-09-30T15:54:21.154Z,78.50
2023-09-30T15:56:55.821Z,81.30
2023-09-30T15:59:23.413Z,82.20
2023-09-30T16:01:50.217Z,83.30
2023-09-30T16:04:17.240Z,85.10
2023-09-30T16:06:44.215Z,85.50
2023-09-30T16:09:10.879Z,84.10
2023-09-30T16:11:37.506Z,82.80
2023-09-30T16:14:04.571Z,83.60
2023-09-30T16:16:31.440Z,85.90
2023-09-30T16:18:58.235Z,87.10
2023-09-30T16:21:29.065Z,88.60
2023-09-30T16:23:56.184Z,87.10
2023-09-30T16:26:22.935Z,87.20
2023-09-30T16:28:49.631Z,89.40
2023-09-30T16:31:17.184Z,89.20
2023-09-30T16:33:43.944Z,89.90
2023-09-30T16:36:10.764Z,90.30
2023-09-30T16:38:37.409Z,90.00
2023-09-30T16:41:04.080Z,89.00
2023-09-30T16:43:30.810Z,89.80
2023-09-30T16:46:01.763Z,89.60
2023-09-30T16:48:28.427Z,89.80
2023-09-30T16:50:55.094Z,89.20
2023-09-30T16:53:21.760Z,89.80
2023-09-30T16:55:48.369Z,90.40
2023-09-30T16:58:15.064Z,90.60
2023-09-30T17:00:41.845Z,90.80
2023-09-30T17:03:09.519Z,91.10
2023-09-30T17:05:36.763Z,91.20
2023-09-30T17:08:03.476Z,91.80
2023-09-30T17:10:30.142Z,92.00
2023-09-30T17:12:56.814Z,92.20
2023-09-30T17:15:23.467Z,93.20
2023-09-30T17:17:50.123Z,93.30
2023-09-30T17:20:17.846Z,93.40
2023-09-30T17:22:44.671Z,93.80
2023-09-30T17:25:11.413Z,93.80
2023-09-30T17:27:38.207Z,94.50
2023-09-30T17:30:05.940Z,94.40
2023-09-30T17:32:32.759Z,94.70
2023-09-30T17:34:59.458Z,95.20
2023-09-30T17:37:27.136Z,95.40
2023-09-30T17:39:53.864Z,95.60
2023-09-30T17:42:20.857Z,96.00
2023-09-30T17:44:48.616Z,96.20
2023-09-30T17:47:15.647Z,96.50
2023-09-30T17:49:42.640Z,96.80
2023-09-30T17:52:09.404Z,97.10
2023-09-30T17:54:36.144Z,97.40
2023-09-30T17:57:02.892Z,97.60
2023-09-30T17:59:31.329Z,98.00
2023-09-30T18:01:58.055Z,98.50
2023-09-30T18:04:24.822Z,98.90
2023-09-30T18:06:52.488Z,99.20
2023-09-30T18:09:19.186Z,99.50
2023-09-30T18:11:45.827Z,99.70
2023-09-30T18:14:17.136Z,99.90
2023-09-30T18:16:44.989Z,99.90
2023-09-30T18:19:11.792Z,99.90
2023-09-30T18:21:38.536Z,99.90
2023-09-30T18:24:06.050Z,99.90
2023-09-30T18:26:32.720Z,99.90
2023-09-30T18:28:59.377Z,99.90
2023-09-30T18:31:26.428Z,99.90
2023-09-30T18:33:53.493Z,99.90
2023-09-30T18:36:20.756Z,99.90
2023-09-30T18:38:47.593Z,99.90
2023-09-30T18:41:17.888Z,99.90
2023-09-30T18:43:45.516Z,99.90
2023-09-30T18:46:15.724Z,99.90
2023-09-30T18:48:42.918Z,99.90
2023-09-30T18:51:09.760Z,99.90
2023-09-30T18:53:37.549Z,99.90
2023-09-30T18:56:04.766Z,99.90
2023-09-30T18:58:31.566Z,99.90
2023-09-30T19:00:58.347Z,99.90
2023-09-30T19:03:26.694Z,99.90
2023-09-30T19:05:55.364Z,99.90
2023-09-30T19:08:23.879Z,99.90
2023-09-30T19:10:51.434Z,99.90
2023-09-30T19:13:18.360Z,99.90
2023-09-30T19:15:45.190Z,99.90
2023-09-30T19:18:12.196Z,99.90
2023-09-30T19:20:39.381Z,99.90
2023-09-30T19:23:06.108Z,99.90
2023-09-30T19:25:33.236Z,99.90
2023-09-30T19:27:59.967Z,99.90
2023-09-30T19:30:26.627Z,99.90
2023-09-30T19:32:53.302Z,99.90
2023-09-30T19:35:20.763Z,99.90
2023-09-30T19:37:47.498Z,99.90
2023-09-30T19:40:14.153Z,99.90
2023-09-30T19:42:41.061Z,99.90
2023-09-30T19:45:07.898Z,99.90
2023-09-30T19:47:34.619Z,99.90
2023-09-30T19:50:01.337Z,99.90
2023-09-30T19:52:31.235Z,99.90
2023-09-30T19:54:58.324Z,99.90
2023-09-30T19:57:25.560Z,99.90
2023-09-30T19:59:52.339Z,99.90
2023-09-30T20:02:20.659Z,99.90
2023-09-30T20:04:48.005Z,99.90
2023-09-30T20:07:14.838Z,99.90
2023-09-30T20:09:43.787Z,99.90
2023-09-30T20:12:11.037Z,99.90
2023-09-30T20:14:37.732Z,99.90
2023-09-30T20:17:04.513Z,99.90
2023-09-30T20:19:31.426Z,99.90
2023-09-30T20:21:58.143Z,99.90
2023-09-30T20:24:25.118Z,99.90
2023-09-30T20:26:51.876Z,99.90
2023-09-30T20:29:18.552Z,99.90
2023-09-30T20:31:45.510Z,99.90
2023-09-30T20:34:13.228Z,99.90
2023-09-30T20:36:40.017Z,99.90
2023-09-30T20:39:10.411Z,99.90
2023-09-30T20:41:40.312Z,99.90
2023-09-30T20:44:07.086Z,99.90
2023-09-30T20:46:33.778Z,99.90
2023-09-30T20:49:00.773Z,99.90
2023-09-30T20:51:27.528Z,99.90
2023-09-30T20:53:54.659Z,99.90
2023-09-30T20:56:21.416Z,99.90
2023-09-30T20:58:50.430Z,99.90
2023-09-30T21:01:17.884Z,99.90
2023-09-30T21:03:44.843Z,99.90
2023-09-30T21:06:12.149Z,99.90
2023-09-30T21:08:39.459Z,99.90
2023-09-30T21:11:09.239Z,99.90
2023-09-30T21:13:36.325Z,99.90
2023-09-30T21:16:05.941Z,99.90
2023-09-30T21:18:33.722Z,99.90
2023-09-30T21:21:00.713Z,99.90
2023-09-30T21:23:27.495Z,99.90
2023-09-30T21:25:54.231Z,99.90
2023-09-30T21:28:21.179Z,99.90
2023-09-30T21:30:48.103Z,99.90
2023-09-30T21:33:14.940Z,99.90
2023-09-30T21:35:41.822Z,99.90
2023-09-30T21:38:11.511Z,99.90
2023-09-30T21:40:38.201Z,99.90
2023-09-30T21:43:04.960Z,99.90
2023-09-30T21:45:32.176Z,99.90
2023-09-30T21:47:59.252Z,99.90
2023-09-30T21:50:26.032Z,99.90
2023-09-30T21:52:52.761Z,99.90
2023-09-30T21:55:19.669Z,99.90
2023-09-30T21:57:46.455Z,99.90
2023-09-30T22:00:16.016Z,99.90
2023-09-30T22:02:43.404Z,99.90
2023-09-30T22:05:11.375Z,99.90
2023-09-30T22:07:41.254Z,99.90
2023-09-30T22:10:09.390Z,99.90
2023-09-30T22:12:37.098Z,99.90
2023-09-30T22:15:04.154Z,99.90
2023-09-30T22:17:30.921Z,99.90
2023-09-30T22:19:57.616Z,99.90
2023-09-30T22:22:24.842Z,99.90
2023-09-30T22:24:55.180Z,99.90
2023-09-30T22:27:22.271Z,99.90
2023-09-30T22:29:49.222Z,99.90
2023-09-30T22:32:16.143Z,99.90
2023-09-30T22:34:42.981Z,99.90
2023-09-30T22:37:10.557Z,99.90
2023-09-30T22:39:37.322Z,99.90
2023-09-30T22:42:03.996Z,99.90
2023-09-30T22:44:32.400Z,99.90
2023-09-30T22:46:59.126Z,99.90
2023-09-30T22:49:26.303Z,99.90
2023-09-30T22:51:53.427Z,99.90
2023-09-30T22:54:20.139Z,99.90
2023-09-30T22:56:46.816Z,99.90
2023-09-30T22:59:13.572Z,99.90
2023-09-30T23:01:40.328Z,99.90
2023-09-30T23:04:07.189Z,99.90
2023-09-30T23:06:34.153Z,99.90
2023-09-30T23:09:01.018Z,99.90
2023-09-30T23:11:28.983Z,99.90
2023-09-30T23:13:56.409Z,99.90
2023-09-30T23:16:23.186Z,99.90
2023-09-30T23:18:50.319Z,99.90
2023-09-30T23:21:19.680Z,99.90
2023-09-30T23:23:46.331Z,99.90
2023-09-30T23:26:13.182Z,99.90
2023-09-30T23:28:40.285Z,99.90
2023-09-30T23:31:07.147Z,99.90
2023-09-30T23:33:34.679Z,99.90
2023-09-30T23:36:03.824Z,99.90
2023-09-30T23:38:31.684Z,99.90
2023-09-30T23:40:59.775Z,99.90
2023-09-30T23:43:27.150Z,99.90
2023-09-30T23:45:54.626Z,99.90
2023-09-30T23:48:22.479Z,99.90
2023-09-30T23:50:54.644Z,99.90
2023-09-30T23:53:23.631Z,99.90
2023-09-30T23:55:50.736Z,99.90
2023-09-30T23:58:17.634Z,99.90
